首页
METAR-TAF:

METAR-TAF

机场 :

Felker Army Airfield

Fort Eustis, 弗吉尼亚州, 美国

纬度: 37-08N, 经度: 076-37W, 海拔: 4米

当前天气观测

该预报发布于38分钟前的10:56 UTC
风速3节,风向北转东北
温度 16°C
湿度 63%
气压 1024 hPa
能見度: 16.1公里
少量云层高于4300英尺

METAR: KFAF 191056Z 02003KT 10SM FEW043 16/09 A3025 RMK AO2A SLP247 T01590086 $

时间: 07:34 (11:34 UTC)

预报

该预报发布于1小时和34分钟前的10:00 UTC
预报有效从19日的 10点(UTC)到 20日的 16点(UTC)
风速6节,风向东北
能见度10公里或以上
少量云层高于4000英尺
成为
从 19日的 15点(UTC)到 19日的 16点(UTC)
风速10节,风向东转东北,有时为15节阵风
能见度10公里或以上
散云层高于4000英尺
成为
从 20日的 02点(UTC)到 20日的 03点(UTC)
风速6节,风向多变
能见度10公里或以上
少量云层高于3000英尺

TAF: KFAF 191000Z 1910/2016 05006KT 9999 FEW040 QNH3023INS BECMG 1915/1916 06010G15KT 9999 SCT040 QNH3027INS BECMG 2002/2003 VRB06KT 9999 FEW030 QNH3027INS TX22/1918Z TN15/2009Z

超过4000个机场的气象观测和天气预报(METAR&TAF报告)。

可查询的气象台以黄色和红色小点在地图上表示。

将鼠标移到小点上方,可查看气象台名称。

然后点击查看天气观测和预报。

如需切换地图:点击带黑十字的绿色按钮放大地图;点击带横线的绿色按钮缩小地图;或者点击绿色箭头查看邻近地区的地图。


METAR-TAF: